sensor_id;sensor_type;location;lat;lon;timestamp;pressure;altitude;pressure_sealevel;temperature;humidity
74075;BME280;62428;51.412;5.432;2023-03-14T00:00:17;98856.09;;;11.34;76.48
74075;BME280;62428;51.412;5.432;2023-03-14T00:02:43;98852.19;;;11.32;76.59
74075;BME280;62428;51.412;5.432;2023-03-14T00:05:09;98857.91;;;11.30;76.78
74075;BME280;62428;51.412;5.432;2023-03-14T00:07:37;98851.03;;;11.33;76.24
74075;BME280;62428;51.412;5.432;2023-03-14T00:10:04;98853.63;;;11.29;76.26
74075;BME280;62428;51.412;5.432;2023-03-14T00:12:30;98846.72;;;11.28;76.22
74075;BME280;62428;51.412;5.432;2023-03-14T00:14:56;98853.19;;;11.27;76.21
74075;BME280;62428;51.412;5.432;2023-03-14T00:17:21;98857.03;;;11.26;75.79
74075;BME280;62428;51.412;5.432;2023-03-14T00:19:48;98865.44;;;11.25;75.65
74075;BME280;62428;51.412;5.432;2023-03-14T00:22:17;98876.63;;;11.27;74.35
74075;BME280;62428;51.412;5.432;2023-03-14T00:24:43;98868.13;;;11.25;73.96
74075;BME280;62428;51.412;5.432;2023-03-14T00:27:08;98875.38;;;11.24;73.92
74075;BME280;62428;51.412;5.432;2023-03-14T00:29:33;98861.84;;;11.21;72.97
74075;BME280;62428;51.412;5.432;2023-03-14T00:31:59;98876.00;;;11.18;72.90
74075;BME280;62428;51.412;5.432;2023-03-14T00:34:28;98881.28;;;11.14;72.35
74075;BME280;62428;51.412;5.432;2023-03-14T00:36:54;98885.16;;;11.16;71.73
74075;BME280;62428;51.412;5.432;2023-03-14T00:39:19;98880.75;;;11.08;70.99
74075;BME280;62428;51.412;5.432;2023-03-14T00:41:45;98888.00;;;11.08;70.95
74075;BME280;62428;51.412;5.432;2023-03-14T00:44:10;98890.59;;;11.04;71.28
74075;BME280;62428;51.412;5.432;2023-03-14T00:46:35;98892.41;;;11.00;71.46
74075;BME280;62428;51.412;5.432;2023-03-14T00:49:01;98886.16;;;10.96;71.62
74075;BME280;62428;51.412;5.432;2023-03-14T00:51:26;98883.34;;;10.92;71.98
74075;BME280;62428;51.412;5.432;2023-03-14T00:53:51;98887.06;;;10.88;72.14
74075;BME280;62428;51.412;5.432;2023-03-14T00:56:17;98883.16;;;10.85;72.63
74075;BME280;62428;51.412;5.432;2023-03-14T00:58:42;98888.88;;;10.84;72.09
74075;BME280;62428;51.412;5.432;2023-03-14T01:01:14;98881.03;;;10.78;72.66
74075;BME280;62428;51.412;5.432;2023-03-14T01:03:40;98887.44;;;10.74;72.91
74075;BME280;62428;51.412;5.432;2023-03-14T01:06:07;98902.31;;;10.71;72.85
74075;BME280;62428;51.412;5.432;2023-03-14T01:08:32;98890.03;;;10.70;72.78
74075;BME280;62428;51.412;5.432;2023-03-14T01:10:58;98901.44;;;10.67;73.05
74075;BME280;62428;51.412;5.432;2023-03-14T01:13:23;98896.88;;;10.68;72.41
74075;BME280;62428;51.412;5.432;2023-03-14T01:15:48;98884.44;;;10.63;72.62
74075;BME280;62428;51.412;5.432;2023-03-14T01:18:14;98880.97;;;10.63;72.76
74075;BME280;62428;51.412;5.432;2023-03-14T01:20:39;98881.31;;;10.61;73.41
74075;BME280;62428;51.412;5.432;2023-03-14T01:23:04;98881.66;;;10.60;73.42
74075;BME280;62428;51.412;5.432;2023-03-14T01:25:30;98875.19;;;10.61;72.76
74075;BME280;62428;51.412;5.432;2023-03-14T01:27:55;98869.44;;;10.62;73.08
74075;BME280;62428;51.412;5.432;2023-03-14T01:30:21;98864.75;;;10.59;73.04
74075;BME280;62428;51.412;5.432;2023-03-14T01:32:46;98854.34;;;10.57;73.32
74075;BME280;62428;51.412;5.432;2023-03-14T01:35:11;98843.50;;;10.54;73.66
74075;BME280;62428;51.412;5.432;2023-03-14T01:37:37;98846.53;;;10.52;73.72
74075;BME280;62428;51.412;5.432;2023-03-14T01:40:03;98854.16;;;10.50;73.81
74075;BME280;62428;51.412;5.432;2023-03-14T01:42:30;98834.25;;;10.51;73.89
74075;BME280;62428;51.412;5.432;2023-03-14T01:44:58;98836.13;;;10.51;73.90
74075;BME280;62428;51.412;5.432;2023-03-14T01:47:24;98828.41;;;10.49;73.83
74075;BME280;62428;51.412;5.432;2023-03-14T01:50:04;98821.50;;;10.48;74.04
74075;BME280;62428;51.412;5.432;2023-03-14T01:52:39;98825.72;;;10.49;74.24
74075;BME280;62428;51.412;5.432;2023-03-14T01:55:12;98828.06;;;10.51;74.14
74075;BME280;62428;51.412;5.432;2023-03-14T01:57:50;98830.31;;;10.49;74.34
74075;BME280;62428;51.412;5.432;2023-03-14T02:00:21;98824.94;;;10.49;75.03
74075;BME280;62428;51.412;5.432;2023-03-14T02:02:49;98831.47;;;10.48;74.96
74075;BME280;62428;51.412;5.432;2023-03-14T02:05:17;98821.81;;;10.47;74.86
74075;BME280;62428;51.412;5.432;2023-03-14T02:07:51;98825.28;;;10.47;75.03
74075;BME280;62428;51.412;5.432;2023-03-14T02:10:20;98819.16;;;10.47;75.48
74075;BME280;62428;51.412;5.432;2023-03-14T02:12:48;98821.06;;;10.46;76.00
74075;BME280;62428;51.412;5.432;2023-03-14T02:15:14;98815.69;;;10.46;75.79
74075;BME280;62428;51.412;5.432;2023-03-14T02:17:42;98819.47;;;10.45;76.07
74075;BME280;62428;51.412;5.432;2023-03-14T02:22:58;98822.50;;;10.44;77.17
74075;BME280;62428;51.412;5.432;2023-03-14T02:27:54;98814.34;;;10.40;77.74
74075;BME280;62428;51.412;5.432;2023-03-14T02:30:22;98809.31;;;10.38;77.92
74075;BME280;62428;51.412;5.432;2023-03-14T02:32:52;98805.75;;;10.34;78.34
74075;BME280;62428;51.412;5.432;2023-03-14T02:35:22;98810.34;;;10.34;78.71
74075;BME280;62428;51.412;5.432;2023-03-14T02:37:54;98809.13;;;10.31;78.97
74075;BME280;62428;51.412;5.432;2023-03-14T02:40:21;98805.16;;;10.29;79.12
74075;BME280;62428;51.412;5.432;2023-03-14T02:42:46;98795.91;;;10.26;79.28
74075;BME280;62428;51.412;5.432;2023-03-14T02:47:42;98786.59;;;10.24;79.38
74075;BME280;62428;51.412;5.432;2023-03-14T02:50:11;98788.84;;;10.22;79.81
74075;BME280;62428;51.412;5.432;2023-03-14T02:52:37;98787.31;;;10.20;79.45
74075;BME280;62428;51.412;5.432;2023-03-14T02:55:04;98791.88;;;10.20;79.75
74075;BME280;62428;51.412;5.432;2023-03-14T02:57:29;98797.22;;;10.20;79.47
74075;BME280;62428;51.412;5.432;2023-03-14T02:59:58;98786.06;;;10.18;79.44
74075;BME280;62428;51.412;5.432;2023-03-14T03:02:24;98797.13;;;10.16;79.78
74075;BME280;62428;51.412;5.432;2023-03-14T03:04:50;98796.34;;;10.16;79.77
74075;BME280;62428;51.412;5.432;2023-03-14T03:07:15;98797.94;;;10.17;79.64
74075;BME280;62428;51.412;5.432;2023-03-14T03:09:40;98801.28;;;10.14;79.95
74075;BME280;62428;51.412;5.432;2023-03-14T03:12:06;98810.09;;;10.14;79.78
74075;BME280;62428;51.412;5.432;2023-03-14T03:14:31;98802.06;;;10.14;79.68
74075;BME280;62428;51.412;5.432;2023-03-14T03:16:57;98802.38;;;10.13;79.92
74075;BME280;62428;51.412;5.432;2023-03-14T03:19:22;98802.38;;;10.13;80.11
74075;BME280;62428;51.412;5.432;2023-03-14T03:21:48;98793.91;;;10.11;79.65
74075;BME280;62428;51.412;5.432;2023-03-14T03:24:13;98794.22;;;10.09;79.65
74075;BME280;62428;51.412;5.432;2023-03-14T03:26:38;98789.66;;;10.10;79.67
74075;BME280;62428;51.412;5.432;2023-03-14T03:29:04;98791.53;;;10.09;79.51
74075;BME280;62428;51.412;5.432;2023-03-14T03:31:29;98795.47;;;10.12;79.02
74075;BME280;62428;51.412;5.432;2023-03-14T03:33:56;98795.69;;;10.07;79.13
74075;BME280;62428;51.412;5.432;2023-03-14T03:36:23;98791.44;;;10.06;79.53
74075;BME280;62428;51.412;5.432;2023-03-14T03:38:49;98792.56;;;10.05;79.59
74075;BME280;62428;51.412;5.432;2023-03-14T03:41:15;98789.88;;;10.05;79.42
74075;BME280;62428;51.412;5.432;2023-03-14T03:43:40;98787.97;;;10.05;79.38
74075;BME280;62428;51.412;5.432;2023-03-14T03:46:06;98785.63;;;10.04;79.17
74075;BME280;62428;51.412;5.432;2023-03-14T03:48:32;98770.66;;;10.03;79.18
74075;BME280;62428;51.412;5.432;2023-03-14T03:50:58;98770.13;;;9.97;79.53
74075;BME280;62428;51.412;5.432;2023-03-14T03:53:23;98778.84;;;9.94;79.02
74075;BME280;62428;51.412;5.432;2023-03-14T03:55:49;98776.81;;;9.91;79.12
74075;BME280;62428;51.412;5.432;2023-03-14T03:58:14;98770.91;;;9.85;79.45
74075;BME280;62428;51.412;5.432;2023-03-14T04:00:39;98776.94;;;9.82;79.67
74075;BME280;62428;51.412;5.432;2023-03-14T04:03:05;98775.59;;;9.76;80.01
74075;BME280;62428;51.412;5.432;2023-03-14T04:05:30;98780.97;;;9.76;80.43
74075;BME280;62428;51.412;5.432;2023-03-14T04:07:55;98774.38;;;9.73;80.86
74075;BME280;62428;51.412;5.432;2023-03-14T04:10:21;98770.44;;;9.71;80.89
74075;BME280;62428;51.412;5.432;2023-03-14T04:12:46;98777.28;;;9.68;81.82
74075;BME280;62428;51.412;5.432;2023-03-14T04:15:11;98770.00;;;9.69;82.15
74075;BME280;62428;51.412;5.432;2023-03-14T04:17:37;98774.16;;;9.66;82.57
74075;BME280;62428;51.412;5.432;2023-03-14T04:20:03;98771.03;;;9.64;83.34
74075;BME280;62428;51.412;5.432;2023-03-14T04:22:28;98770.59;;;9.62;84.04
74075;BME280;62428;51.412;5.432;2023-03-14T04:24:54;98768.13;;;9.57;84.89
74075;BME280;62428;51.412;5.432;2023-03-14T04:27:19;98769.91;;;9.53;85.14
74075;BME280;62428;51.412;5.432;2023-03-14T04:29:44;98754.16;;;9.51;85.35
74075;BME280;62428;51.412;5.432;2023-03-14T04:32:10;98762.88;;;9.48;85.92
74075;BME280;62428;51.412;5.432;2023-03-14T04:34:35;98759.75;;;9.46;86.25
74075;BME280;62428;51.412;5.432;2023-03-14T04:37:01;98752.69;;;9.41;86.64
74075;BME280;62428;51.412;5.432;2023-03-14T04:39:26;98751.13;;;9.40;86.94
74075;BME280;62428;51.412;5.432;2023-03-14T04:41:51;98754.16;;;9.39;87.61
74075;BME280;62428;51.412;5.432;2023-03-14T04:44:17;98754.16;;;9.39;88.03
74075;BME280;62428;51.412;5.432;2023-03-14T04:46:43;98749.56;;;9.39;88.67
74075;BME280;62428;51.412;5.432;2023-03-14T04:49:08;98747.22;;;9.38;89.46
74075;BME280;62428;51.412;5.432;2023-03-14T04:51:33;98761.75;;;9.37;90.37
74075;BME280;62428;51.412;5.432;2023-03-14T04:53:59;98749.00;;;9.34;91.13
74075;BME280;62428;51.412;5.432;2023-03-14T04:56:24;98756.59;;;9.32;91.35
74075;BME280;62428;51.412;5.432;2023-03-14T04:58:49;98758.06;;;9.29;91.63
74075;BME280;62428;51.412;5.432;2023-03-14T05:01:15;98751.44;;;9.27;91.64
74075;BME280;62428;51.412;5.432;2023-03-14T05:03:40;98745.63;;;9.24;91.84
74075;BME280;62428;51.412;5.432;2023-03-14T05:06:06;98747.44;;;9.20;92.26
74075;BME280;62428;51.412;5.432;2023-03-14T05:08:31;98743.97;;;9.20;93.13
74075;BME280;62428;51.412;5.432;2023-03-14T05:10:57;98744.41;;;9.22;92.69
74075;BME280;62428;51.412;5.432;2023-03-14T05:13:23;98743.63;;;9.21;92.39
74075;BME280;62428;51.412;5.432;2023-03-14T05:15:49;98747.44;;;9.20;92.84
74075;BME280;62428;51.412;5.432;2023-03-14T05:18:18;98748.66;;;9.23;92.97
74075;BME280;62428;51.412;5.432;2023-03-14T05:20:44;98737.16;;;9.22;93.41
74075;BME280;62428;51.412;5.432;2023-03-14T05:23:09;98743.28;;;9.23;93.30
74075;BME280;62428;51.412;5.432;2023-03-14T05:25:35;98745.63;;;9.24;93.32
74075;BME280;62428;51.412;5.432;2023-03-14T05:28:00;98745.63;;;9.24;93.25
74075;BME280;62428;51.412;5.432;2023-03-14T05:30:26;98738.69;;;9.23;93.77
74075;BME280;62428;51.412;5.432;2023-03-14T05:32:54;98733.34;;;9.23;93.96
74075;BME280;62428;51.412;5.432;2023-03-14T05:35:19;98745.63;;;9.24;93.82
74075;BME280;62428;51.412;5.432;2023-03-14T05:37:44;98730.66;;;9.23;93.97
74075;BME280;62428;51.412;5.432;2023-03-14T05:40:10;98728.78;;;9.24;94.67
74075;BME280;62428;51.412;5.432;2023-03-14T05:42:36;98724.53;;;9.23;94.86
74075;BME280;62428;51.412;5.432;2023-03-14T05:45:01;98725.66;;;9.22;94.92
74075;BME280;62428;51.412;5.432;2023-03-14T05:47:27;98725.22;;;9.20;95.64
74075;BME280;62428;51.412;5.432;2023-03-14T05:49:53;98725.22;;;9.20;95.25
74075;BME280;62428;51.412;5.432;2023-03-14T05:52:18;98729.78;;;9.19;95.29
74075;BME280;62428;51.412;5.432;2023-03-14T05:54:43;98721.41;;;9.21;95.50
74075;BME280;62428;51.412;5.432;2023-03-14T05:57:09;98726.00;;;9.20;95.80
74075;BME280;62428;51.412;5.432;2023-03-14T05:59:34;98719.88;;;9.20;96.03
74075;BME280;62428;51.412;5.432;2023-03-14T06:01:59;98713.69;;;9.19;96.16
74075;BME280;62428;51.412;5.432;2023-03-14T06:04:25;98717.50;;;9.18;96.41
74075;BME280;62428;51.412;5.432;2023-03-14T06:06:50;98719.75;;;9.16;97.00
74075;BME280;62428;51.412;5.432;2023-03-14T06:09:16;98720.06;;;9.15;97.39
74075;BME280;62428;51.412;5.432;2023-03-14T06:11:41;98722.41;;;9.16;97.05
74075;BME280;62428;51.412;5.432;2023-03-14T06:14:07;98716.25;;;9.16;97.17
74075;BME280;62428;51.412;5.432;2023-03-14T06:16:32;98715.03;;;9.13;97.23
74075;BME280;62428;51.412;5.432;2023-03-14T06:18:58;98717.72;;;9.13;97.54
74075;BME280;62428;51.412;5.432;2023-03-14T06:21:23;98713.59;;;9.16;97.11
74075;BME280;62428;51.412;5.432;2023-03-14T06:23:48;98724.75;;;9.18;97.04
74075;BME280;62428;51.412;5.432;2023-03-14T06:26:14;98722.53;;;9.20;96.72
74075;BME280;62428;51.412;5.432;2023-03-14T06:28:39;98714.59;;;9.23;96.45
74075;BME280;62428;51.412;5.432;2023-03-14T06:31:05;98724.09;;;9.21;96.81
74075;BME280;62428;51.412;5.432;2023-03-14T06:33:30;98725.31;;;9.23;96.77
74075;BME280;62428;51.412;5.432;2023-03-14T06:35:56;98725.78;;;9.26;96.10
74075;BME280;62428;51.412;5.432;2023-03-14T06:38:21;98713.94;;;9.27;96.40
74075;BME280;62428;51.412;5.432;2023-03-14T06:40:46;98733.94;;;9.29;96.58
74075;BME280;62428;51.412;5.432;2023-03-14T06:43:12;98722.19;;;9.34;95.90
74075;BME280;62428;51.412;5.432;2023-03-14T06:45:37;98728.91;;;9.40;95.51
74075;BME280;62428;51.412;5.432;2023-03-14T06:48:03;98732.50;;;9.44;95.78
74075;BME280;62428;51.412;5.432;2023-03-14T06:50:28;98727.69;;;9.50;95.78
74075;BME280;62428;51.412;5.432;2023-03-14T06:52:53;98730.59;;;9.57;96.06
74075;BME280;62428;51.412;5.432;2023-03-14T06:55:19;98735.38;;;9.63;95.96
74075;BME280;62428;51.412;5.432;2023-03-14T06:57:45;98740.06;;;9.67;96.13
74075;BME280;62428;51.412;5.432;2023-03-14T07:00:12;98744.66;;;9.66;96.11
74075;BME280;62428;51.412;5.432;2023-03-14T07:02:38;98745.75;;;9.65;96.91
74075;BME280;62428;51.412;5.432;2023-03-14T07:05:04;98750.69;;;9.63;97.08
74075;BME280;62428;51.412;5.432;2023-03-14T07:07:30;98756.81;;;9.63;96.62
74075;BME280;62428;51.412;5.432;2023-03-14T07:09:55;98761.41;;;9.63;96.34
74075;BME280;62428;51.412;5.432;2023-03-14T07:12:21;98762.53;;;9.62;96.74
74075;BME280;62428;51.412;5.432;2023-03-14T07:14:46;98761.41;;;9.63;96.79
74075;BME280;62428;51.412;5.432;2023-03-14T07:17:11;98758.72;;;9.63;96.66
74075;BME280;62428;51.412;5.432;2023-03-14T07:19:36;98762.06;;;9.60;97.26
74075;BME280;62428;51.412;5.432;2023-03-14T07:22:03;98772.03;;;9.59;97.18
74075;BME280;62428;51.412;5.432;2023-03-14T07:24:29;98776.28;;;9.60;97.38
74075;BME280;62428;51.412;5.432;2023-03-14T07:26:54;98779.28;;;9.59;97.58
74075;BME280;62428;51.412;5.432;2023-03-14T07:29:19;98787.66;;;9.57;97.93
74075;BME280;62428;51.412;5.432;2023-03-14T07:31:45;98788.69;;;9.53;97.67
74075;BME280;62428;51.412;5.432;2023-03-14T07:34:10;98802.75;;;9.50;98.39
74075;BME280;62428;51.412;5.432;2023-03-14T07:36:35;98820.63;;;9.46;98.05
74075;BME280;62428;51.412;5.432;2023-03-14T07:39:01;98856.19;;;9.34;97.67
74075;BME280;62428;51.412;5.432;2023-03-14T07:41:26;98876.34;;;9.19;95.84
74075;BME280;62428;51.412;5.432;2023-03-14T07:43:52;98897.16;;;9.01;95.38
74075;BME280;62428;51.412;5.432;2023-03-14T07:46:17;98916.19;;;8.87;95.03
74075;BME280;62428;51.412;5.432;2023-03-14T07:48:42;98915.66;;;8.73;93.74
74075;BME280;62428;51.412;5.432;2023-03-14T07:51:08;98931.31;;;8.62;94.23
74075;BME280;62428;51.412;5.432;2023-03-14T07:53:33;98939.25;;;8.50;94.53
74075;BME280;62428;51.412;5.432;2023-03-14T07:55:59;98949.94;;;8.41;94.61
74075;BME280;62428;51.412;5.432;2023-03-14T07:58:24;98959.28;;;8.35;94.59
74075;BME280;62428;51.412;5.432;2023-03-14T08:00:50;98969.22;;;8.25;94.57
74075;BME280;62428;51.412;5.432;2023-03-14T08:03:16;98973.19;;;8.19;94.75
74075;BME280;62428;51.412;5.432;2023-03-14T08:05:42;98980.28;;;8.15;95.82
74075;BME280;62428;51.412;5.432;2023-03-14T08:08:08;98989.75;;;8.13;95.13
74075;BME280;62428;51.412;5.432;2023-03-14T08:10:34;98996.34;;;8.06;95.34
74075;BME280;62428;51.412;5.432;2023-03-14T08:13:00;99009.25;;;8.04;95.78
74075;BME280;62428;51.412;5.432;2023-03-14T08:15:27;99021.38;;;8.02;95.61
74075;BME280;62428;51.412;5.432;2023-03-14T08:17:53;99021.25;;;7.98;94.99
74075;BME280;62428;51.412;5.432;2023-03-14T08:20:26;99034.47;;;7.95;95.11
74075;BME280;62428;51.412;5.432;2023-03-14T08:22:52;99051.59;;;7.94;94.91
74075;BME280;62428;51.412;5.432;2023-03-14T08:25:19;99050.81;;;7.93;95.16
74075;BME280;62428;51.412;5.432;2023-03-14T08:27:45;99061.50;;;7.93;95.35
74075;BME280;62428;51.412;5.432;2023-03-14T08:30:13;99075.34;;;7.95;94.42
74075;BME280;62428;51.412;5.432;2023-03-14T08:32:39;99084.50;;;7.94;94.40
74075;BME280;62428;51.412;5.432;2023-03-14T08:35:05;99088.41;;;7.97;95.17
74075;BME280;62428;51.412;5.432;2023-03-14T08:37:32;99103.38;;;7.98;94.08
74075;BME280;62428;51.412;5.432;2023-03-14T08:39:57;99116.09;;;7.92;94.00
74075;BME280;62428;51.412;5.432;2023-03-14T08:42:23;99114.38;;;7.87;94.26
74075;BME280;62428;51.412;5.432;2023-03-14T08:44:52;99134.00;;;7.83;93.89
74075;BME280;62428;51.412;5.432;2023-03-14T08:47:18;99142.53;;;7.76;94.40
74075;BME280;62428;51.412;5.432;2023-03-14T08:49:43;99147.72;;;7.73;94.42
74075;BME280;62428;51.412;5.432;2023-03-14T08:52:09;99156.34;;;7.69;95.37
74075;BME280;62428;51.412;5.432;2023-03-14T08:54:34;99156.81;;;7.72;95.69
74075;BME280;62428;51.412;5.432;2023-03-14T08:56:59;99163.75;;;7.73;94.97
74075;BME280;62428;51.412;5.432;2023-03-14T08:59:25;99176.00;;;7.74;94.44
74075;BME280;62428;51.412;5.432;2023-03-14T09:01:50;99187.34;;;7.70;93.52
74075;BME280;62428;51.412;5.432;2023-03-14T09:04:16;99185.59;;;7.66;94.16
74075;BME280;62428;51.412;5.432;2023-03-14T09:06:41;99193.91;;;7.64;94.26
74075;BME280;62428;51.412;5.432;2023-03-14T09:09:06;99197.41;;;7.65;94.53
74075;BME280;62428;51.412;5.432;2023-03-14T09:11:35;99216.09;;;7.65;94.65
74075;BME280;62428;51.412;5.432;2023-03-14T09:14:00;99222.53;;;7.64;94.35
74075;BME280;62428;51.412;5.432;2023-03-14T09:16:26;99232.44;;;7.63;94.27
74075;BME280;62428;51.412;5.432;2023-03-14T09:18:51;99241.06;;;7.60;94.92
74075;BME280;62428;51.412;5.432;2023-03-14T09:21:22;99249.88;;;7.61;94.66
74075;BME280;62428;51.412;5.432;2023-03-14T09:23:48;99258.69;;;7.61;95.22
74075;BME280;62428;51.412;5.432;2023-03-14T09:26:14;99264.06;;;7.61;95.72
74075;BME280;62428;51.412;5.432;2023-03-14T09:28:39;99266.56;;;7.66;95.38
74075;BME280;62428;51.412;5.432;2023-03-14T09:31:09;99273.06;;;7.74;94.48
74075;BME280;62428;51.412;5.432;2023-03-14T09:33:35;99279.03;;;7.80;94.20
74075;BME280;62428;51.412;5.432;2023-03-14T09:36:01;99292.44;;;7.88;95.56
74075;BME280;62428;51.412;5.432;2023-03-14T09:38:27;99292.75;;;7.96;94.01
74075;BME280;62428;51.412;5.432;2023-03-14T09:40:53;99304.25;;;7.96;94.88
74075;BME280;62428;51.412;5.432;2023-03-14T09:43:21;99308.78;;;7.96;92.92
74075;BME280;62428;51.412;5.432;2023-03-14T09:45:48;99312.41;;;7.91;93.28
74075;BME280;62428;51.412;5.432;2023-03-14T09:48:19;99337.91;;;7.88;92.23
74075;BME280;62428;51.412;5.432;2023-03-14T09:50:49;99346.19;;;7.78;93.56
74075;BME280;62428;51.412;5.432;2023-03-14T09:53:20;99381.38;;;7.72;93.32
74075;BME280;62428;51.412;5.432;2023-03-14T09:55:50;99384.94;;;7.58;92.66
74075;BME280;62428;51.412;5.432;2023-03-14T09:58:23;99402.69;;;7.54;93.88
74075;BME280;62428;51.412;5.432;2023-03-14T10:00:56;99409.72;;;7.50;93.47
74075;BME280;62428;51.412;5.432;2023-03-14T10:03:33;99438.75;;;7.43;91.33
74075;BME280;62428;51.412;5.432;2023-03-14T10:06:00;99453.44;;;7.31;92.04
74075;BME280;62428;51.412;5.432;2023-03-14T10:08:25;99467.84;;;7.22;90.50
74075;BME280;62428;51.412;5.432;2023-03-14T10:10:51;99484.22;;;7.06;89.98
74075;BME280;62428;51.412;5.432;2023-03-14T10:13:24;99513.03;;;6.96;90.25
74075;BME280;62428;51.412;5.432;2023-03-14T10:18:18;99522.22;;;6.89;91.02
74075;BME280;62428;51.412;5.432;2023-03-14T10:20:46;99532.88;;;6.89;91.15
74075;BME280;62428;51.412;5.432;2023-03-14T10:25:40;99556.50;;;7.10;92.85
74075;BME280;62428;51.412;5.432;2023-03-14T10:30:50;99572.94;;;7.54;91.56
74075;BME280;62428;51.412;5.432;2023-03-14T10:35:53;99588.38;;;7.79;90.78
74075;BME280;62428;51.412;5.432;2023-03-14T10:38:23;99605.44;;;7.83;89.36
74075;BME280;62428;51.412;5.432;2023-03-14T10:40:52;99609.38;;;7.86;88.42
74075;BME280;62428;51.412;5.432;2023-03-14T10:43:22;99626.72;;;7.88;87.94
74075;BME280;62428;51.412;5.432;2023-03-14T10:45:56;99628.88;;;7.86;87.05
74075;BME280;62428;51.412;5.432;2023-03-14T10:51:04;99647.72;;;7.81;86.99
74075;BME280;62428;51.412;5.432;2023-03-14T10:53:59;99654.81;;;7.86;87.89
74075;BME280;62428;51.412;5.432;2023-03-14T10:56:25;99664.75;;;7.85;83.75
74075;BME280;62428;51.412;5.432;2023-03-14T10:58:57;99681.09;;;7.84;85.17
74075;BME280;62428;51.412;5.432;2023-03-14T11:01:35;99678.31;;;7.75;83.84
74075;BME280;62428;51.412;5.432;2023-03-14T11:04:21;99697.97;;;7.70;85.40
74075;BME280;62428;51.412;5.432;2023-03-14T11:09:25;99725.00;;;7.55;85.41
74075;BME280;62428;51.412;5.432;2023-03-14T11:12:01;99734.50;;;7.47;88.08
74075;BME280;62428;51.412;5.432;2023-03-14T11:14:35;99746.38;;;7.41;87.82
74075;BME280;62428;51.412;5.432;2023-03-14T11:17:57;99752.59;;;7.37;88.72
74075;BME280;62428;51.412;5.432;2023-03-14T11:20:38;99759.34;;;7.34;88.19
74075;BME280;62428;51.412;5.432;2023-03-14T11:23:21;99763.28;;;7.37;88.29
74075;BME280;62428;51.412;5.432;2023-03-14T11:28:37;99779.16;;;7.47;88.07
74075;BME280;62428;51.412;5.432;2023-03-14T11:31:12;99786.66;;;7.59;89.62
74075;BME280;62428;51.412;5.432;2023-03-14T11:37:06;99801.53;;;7.79;89.35
74075;BME280;62428;51.412;5.432;2023-03-14T11:39:39;99808.16;;;7.81;88.38
74075;BME280;62428;51.412;5.432;2023-03-14T11:42:11;99814.88;;;7.79;87.75
74075;BME280;62428;51.412;5.432;2023-03-14T11:44:39;99822.22;;;7.73;87.92
74075;BME280;62428;51.412;5.432;2023-03-14T11:49:43;99857.75;;;7.74;89.01
74075;BME280;62428;51.412;5.432;2023-03-14T11:52:30;99869.81;;;7.57;86.70
74075;BME280;62428;51.412;5.432;2023-03-14T11:55:10;99878.19;;;7.37;87.64
74075;BME280;62428;51.412;5.432;2023-03-14T11:57:39;99882.50;;;7.19;86.24
74075;BME280;62428;51.412;5.432;2023-03-14T12:10:56;99906.06;;;6.98;89.19
74075;BME280;62428;51.412;5.432;2023-03-14T12:13:28;99920.72;;;7.19;89.39
74075;BME280;62428;51.412;5.432;2023-03-14T12:15:57;99926.66;;;7.30;88.94
74075;BME280;62428;51.412;5.432;2023-03-14T12:18:35;99929.69;;;7.42;88.38
74075;BME280;62428;51.412;5.432;2023-03-14T12:21:06;99948.16;;;7.58;89.31
74075;BME280;62428;51.412;5.432;2023-03-14T12:23:56;99948.56;;;7.65;87.87
74075;BME280;62428;51.412;5.432;2023-03-14T12:26:27;99953.72;;;7.61;87.19
74075;BME280;62428;51.412;5.432;2023-03-14T12:50:13;99987.59;;;10.09;76.77
74075;BME280;62428;51.412;5.432;2023-03-14T12:53:27;99981.44;;;10.08;77.41
74075;BME280;62428;51.412;5.432;2023-03-14T12:56:05;99985.25;;;9.85;73.25
74075;BME280;62428;51.412;5.432;2023-03-14T12:58:44;99991.00;;;9.69;78.81
74075;BME280;62428;51.412;5.432;2023-03-14T13:01:19;100001.19;;;9.58;76.45
74075;BME280;62428;51.412;5.432;2023-03-14T13:03:52;100001.97;;;9.59;79.42
74075;BME280;62428;51.412;5.432;2023-03-14T13:06:54;100001.97;;;9.59;77.65
74075;BME280;62428;51.412;5.432;2023-03-14T13:11:55;100024.03;;;9.33;75.60
74075;BME280;62428;51.412;5.432;2023-03-14T13:14:23;100023.59;;;9.40;77.50
74075;BME280;62428;51.412;5.432;2023-03-14T13:16:49;100033.00;;;9.51;74.65
74075;BME280;62428;51.412;5.432;2023-03-14T13:19:21;100032.19;;;9.51;74.74
74075;BME280;62428;51.412;5.432;2023-03-14T13:21:50;100032.94;;;9.42;71.38
74075;BME280;62428;51.412;5.432;2023-03-14T13:24:26;100039.00;;;9.34;71.52
74075;BME280;62428;51.412;5.432;2023-03-14T13:26:55;100044.34;;;9.34;68.63
74075;BME280;62428;51.412;5.432;2023-03-14T13:29:29;100046.72;;;9.50;68.66
74075;BME280;62428;51.412;5.432;2023-03-14T13:32:16;100057.03;;;9.79;67.61
74075;BME280;62428;51.412;5.432;2023-03-14T13:34:42;100051.56;;;10.15;64.58
74075;BME280;62428;51.412;5.432;2023-03-14T13:37:21;100061.31;;;10.65;64.31
74075;BME280;62428;51.412;5.432;2023-03-14T13:39:55;100069.22;;;11.19;62.28
74075;BME280;62428;51.412;5.432;2023-03-14T13:42:25;100077.13;;;11.68;56.79
74075;BME280;62428;51.412;5.432;2023-03-14T13:44:52;100079.97;;;12.15;57.63
74075;BME280;62428;51.412;5.432;2023-03-14T13:47:20;100091.63;;;12.37;52.82
74075;BME280;62428;51.412;5.432;2023-03-14T13:49:47;100106.19;;;12.44;52.44
74075;BME280;62428;51.412;5.432;2023-03-14T13:54:56;100108.56;;;12.84;52.27
74075;BME280;62428;51.412;5.432;2023-03-14T13:57:22;100121.97;;;13.02;49.21
74075;BME280;62428;51.412;5.432;2023-03-14T14:00:03;100128.50;;;12.92;54.60
74075;BME280;62428;51.412;5.432;2023-03-14T14:02:35;100133.63;;;12.85;47.30
74075;BME280;62428;51.412;5.432;2023-03-14T14:05:01;100148.06;;;12.80;46.77
74075;BME280;62428;51.412;5.432;2023-03-14T14:07:27;100153.94;;;12.82;48.45
74075;BME280;62428;51.412;5.432;2023-03-14T14:09:54;100163.00;;;12.78;48.51
74075;BME280;62428;51.412;5.432;2023-03-14T14:12:27;100174.25;;;12.80;49.79
74075;BME280;62428;51.412;5.432;2023-03-14T14:15:04;100184.59;;;12.60;46.78
74075;BME280;62428;51.412;5.432;2023-03-14T14:17:37;100187.00;;;12.36;49.08